McCarran International Airport
KLAS : now visible

Airfield :











YOU CAN JOIN US ON...

 
LOGIN :

Register | Disclaimer

   EN    FR    IT 

 









Legend :    VFR   Marginal VFR   IFR   Intensive IFR   Very Intensive IFR
Visi :
Ceiling :
>= 8 km
>= 3000ft
5 to 8 km
1000 to 3000 ft
1500m to 5 km
500 to 1000 ft
800 to 1500m
200 to 500 ft
< 800m
< 200 ft
Symbols :   Thunderstorms  Fog  Heavy snow  Heavy precipitations  Wind > 20 kt






- Airport Elevation : 2181 ft
- IATA code : LAS


KLAS - McCarran International

CURRENT METAR :
  • 250756Z 00000KT 10SM CLR 28/10 A2989 RMK AO2 SLP093 T02830100 403500250

EXPIRED METARs :
  • 250656Z 00000KT 10SM FEW180 29/10 A2989 RMK AO2 SLP091 T02890100
  • 250556Z 14003KT 10SM FEW160 29/10 A2989 RMK AO2 SLP093 60000 T02940100 10344 20294 52004

TAF KLAS
Valid from the 25 at 09:00 until the 26 at 12:00 UTC


250848Z 2509/2612 VRB05KT P6SM SKC
FM251800 10006KT P6SM FEW120
FM252200 VRB05KT P6SM SKC
FM260400 22007KT P6SM SKC
KZLA FIR / North America



MET'MAP, your aeronautical weather chart ! - Copyright ORBIFLY December 2007 - Disclaimer

ORBIFLY MET'MAP TEAM :

Programming & Development : Alexandra Zaïnal
Concept & original design : Baudouin d'Aumeries
Assistance for programming : Marc-Olivier Méhu
Technical & hardware support : Manuel Goepfert

Contact : metmap@orbifly.com




SOURCES & CREDITS :

   NOAA       Earth
Advisory